createdAt,value
2022-09-13T00:00:05.082Z,8.73
2022-09-13T00:01:37.058Z,7.35
2022-09-13T00:03:10.369Z,7.25
2022-09-13T00:04:42.271Z,8.10
2022-09-13T00:06:19.637Z,7.85
2022-09-13T00:07:51.588Z,7.45
2022-09-13T00:09:23.563Z,6.60
2022-09-13T00:10:55.563Z,7.80
2022-09-13T00:12:27.612Z,7.32
2022-09-13T00:13:59.632Z,7.68
2022-09-13T00:15:31.917Z,7.57
2022-09-13T00:17:03.984Z,7.90
2022-09-13T00:18:35.950Z,6.78
2022-09-13T00:20:08.983Z,8.15
2022-09-13T00:21:40.962Z,8.98
2022-09-13T00:23:14.346Z,9.30
2022-09-13T00:26:29.116Z,7.13
2022-09-13T00:28:01.130Z,7.68
2022-09-13T00:29:33.409Z,8.73
2022-09-13T00:31:07.474Z,7.78
2022-09-13T00:32:40.173Z,7.07
2022-09-13T00:34:12.232Z,7.22
2022-09-13T00:35:44.193Z,7.13
2022-09-13T00:37:16.192Z,7.70
2022-09-13T00:38:48.285Z,6.95
2022-09-13T00:40:22.132Z,17.85
2022-09-13T00:41:54.319Z,7.72
2022-09-13T00:43:48.213Z,7.07
2022-09-13T00:45:20.447Z,7.05
2022-09-13T00:46:53.061Z,6.57
2022-09-13T00:48:25.925Z,6.75
2022-09-13T00:50:28.322Z,6.15
2022-09-13T00:52:05.626Z,6.88
2022-09-13T00:53:40.040Z,6.57
2022-09-13T00:55:25.629Z,6.55
2022-09-13T00:56:59.762Z,6.68
2022-09-13T00:58:35.390Z,7.93
2022-09-13T01:00:14.107Z,7.72
2022-09-13T01:01:49.322Z,7.13
2022-09-13T01:03:23.313Z,8.35
2022-09-13T01:04:55.653Z,7.55
2022-09-13T01:06:29.769Z,7.15
2022-09-13T01:08:02.504Z,7.22
2022-09-13T01:09:37.204Z,7.50
2022-09-13T01:11:13.588Z,7.57
2022-09-13T01:12:53.847Z,7.00
2022-09-13T01:14:25.861Z,7.75
2022-09-13T01:15:58.224Z,9.57
2022-09-13T01:17:31.613Z,7.25
2022-09-13T01:20:47.948Z,9.13
2022-09-13T01:22:32.506Z,7.45
2022-09-13T01:24:28.559Z,7.50
2022-09-13T01:26:18.269Z,7.63
2022-09-13T01:28:11.815Z,7.55
2022-09-13T01:30:22.568Z,7.30
2022-09-13T01:32:10.022Z,6.60
2022-09-13T01:33:51.272Z,7.53
2022-09-13T01:35:28.405Z,8.13
2022-09-13T01:37:20.557Z,9.02
2022-09-13T01:38:52.536Z,7.68
2022-09-13T01:40:59.390Z,7.13
2022-09-13T01:42:47.499Z,7.70
2022-09-13T01:44:40.898Z,7.63
2022-09-13T01:46:21.861Z,6.60
2022-09-13T01:50:17.964Z,7.70
2022-09-13T01:52:06.480Z,8.03
2022-09-13T01:54:15.684Z,8.55
2022-09-13T01:56:04.422Z,7.05
2022-09-13T01:57:43.954Z,7.95
2022-09-13T01:59:21.698Z,7.20
2022-09-13T02:00:53.879Z,7.22
2022-09-13T02:02:40.894Z,6.80
2022-09-13T02:04:17.690Z,7.80
2022-09-13T02:05:56.850Z,6.85
2022-09-13T02:07:34.431Z,7.38
2022-09-13T02:09:17.529Z,7.35
2022-09-13T02:10:57.389Z,7.32
2022-09-13T02:12:32.494Z,9.63
2022-09-13T02:14:20.016Z,7.53
2022-09-13T02:15:54.991Z,6.88
2022-09-13T02:17:30.417Z,6.82
2022-09-13T02:19:16.909Z,7.97
2022-09-13T02:20:51.067Z,8.40
2022-09-13T02:22:32.360Z,9.45
2022-09-13T02:24:07.859Z,9.38
2022-09-13T02:25:41.390Z,7.43
2022-09-13T02:27:17.633Z,12.05
2022-09-13T02:28:55.740Z,6.75
2022-09-13T02:30:29.669Z,8.60
2022-09-13T02:32:10.132Z,9.18
2022-09-13T02:33:48.343Z,7.40
2022-09-13T02:35:27.064Z,7.38
2022-09-13T02:36:59.928Z,8.40
2022-09-13T02:38:41.956Z,6.22
2022-09-13T02:40:22.384Z,6.50
2022-09-13T02:42:21.027Z,7.90
2022-09-13T02:44:03.186Z,7.80
2022-09-13T02:45:46.866Z,7.15
2022-09-13T02:47:59.605Z,8.50
2022-09-13T02:49:46.082Z,8.27
2022-09-13T02:51:34.169Z,7.07
2022-09-13T02:53:22.065Z,7.10
2022-09-13T02:55:06.583Z,8.35
2022-09-13T02:56:49.692Z,7.70
2022-09-13T02:58:50.674Z,7.22
2022-09-13T03:00:23.481Z,6.45
2022-09-13T03:02:00.580Z,6.80
2022-09-13T03:03:32.623Z,7.50
2022-09-13T03:05:05.204Z,7.57
2022-09-13T03:06:38.507Z,7.25
2022-09-13T03:08:12.667Z,7.03
2022-09-13T03:09:52.504Z,8.20
2022-09-13T03:11:36.015Z,7.53
2022-09-13T03:13:16.750Z,7.63
2022-09-13T03:15:07.419Z,7.15
2022-09-13T03:16:45.574Z,6.70
2022-09-13T03:18:29.289Z,6.60
2022-09-13T03:20:10.426Z,7.70
2022-09-13T03:21:45.110Z,6.88
2022-09-13T03:23:30.261Z,7.30
2022-09-13T03:25:08.277Z,6.00
2022-09-13T03:26:48.559Z,6.70
2022-09-13T03:28:40.472Z,8.13
2022-09-13T03:30:13.748Z,7.93
2022-09-13T03:32:10.861Z,7.85
2022-09-13T03:33:46.002Z,7.03
2022-09-13T03:35:28.893Z,7.93
2022-09-13T03:37:25.045Z,6.70
2022-09-13T03:39:16.950Z,7.15
2022-09-13T03:40:52.633Z,8.75
2022-09-13T03:42:33.169Z,10.25
2022-09-13T03:44:08.754Z,7.90
2022-09-13T03:46:00.617Z,7.38
2022-09-13T03:47:34.240Z,9.63
2022-09-13T03:49:12.568Z,8.32
2022-09-13T03:50:47.043Z,9.13
2022-09-13T03:54:00.137Z,8.45
2022-09-13T03:55:33.410Z,6.40
2022-09-13T03:57:15.723Z,10.60
2022-09-13T03:58:48.575Z,7.40
2022-09-13T04:00:21.389Z,8.82
2022-09-13T04:01:53.467Z,10.27
2022-09-13T04:03:25.543Z,7.28
2022-09-13T04:04:57.998Z,12.98
2022-09-13T04:06:29.985Z,8.50
2022-09-13T04:08:03.264Z,10.02
2022-09-13T04:09:35.429Z,9.38
2022-09-13T04:11:09.495Z,7.85
2022-09-13T04:12:41.747Z,7.22
2022-09-13T04:14:13.754Z,8.00
2022-09-13T04:15:45.872Z,6.57
2022-09-13T04:17:17.974Z,7.93
2022-09-13T04:18:49.972Z,10.18
2022-09-13T04:20:22.383Z,7.53
2022-09-13T04:21:56.278Z,9.15
2022-09-13T04:23:29.538Z,10.15
2022-09-13T04:25:02.540Z,9.38
2022-09-13T04:26:36.035Z,8.43
2022-09-13T04:28:08.083Z,10.63
2022-09-13T04:29:40.287Z,10.40
2022-09-13T04:31:12.341Z,9.95
2022-09-13T04:32:44.867Z,11.52
2022-09-13T04:34:18.841Z,8.70
2022-09-13T04:35:55.946Z,9.85
2022-09-13T04:39:00.785Z,10.35
2022-09-13T04:40:32.801Z,8.63
2022-09-13T04:42:05.314Z,9.15
2022-09-13T04:43:37.313Z,8.87
2022-09-13T04:45:09.999Z,8.55
2022-09-13T04:46:42.160Z,9.23
2022-09-13T04:48:14.317Z,8.73
2022-09-13T04:49:46.478Z,9.93
2022-09-13T04:51:19.333Z,10.63
2022-09-13T04:52:55.684Z,8.27
2022-09-13T04:54:27.819Z,7.72
2022-09-13T04:56:06.557Z,11.30
2022-09-13T04:57:38.695Z,11.93
2022-09-13T04:59:11.712Z,8.55
2022-09-13T05:00:43.762Z,10.10
2022-09-13T05:02:15.901Z,9.55
2022-09-13T05:03:48.027Z,8.57
2022-09-13T05:05:20.157Z,9.93
2022-09-13T05:06:52.819Z,9.38
2022-09-13T05:08:24.860Z,8.68
2022-09-13T05:09:56.928Z,8.57
2022-09-13T05:11:29.997Z,11.95
2022-09-13T05:13:02.088Z,8.40
2022-09-13T05:14:35.408Z,9.73
2022-09-13T05:16:08.155Z,7.43
2022-09-13T05:17:40.203Z,8.73
2022-09-13T05:19:12.908Z,8.88
2022-09-13T05:20:44.888Z,7.63
2022-09-13T05:22:16.955Z,8.85
2022-09-13T05:23:50.782Z,8.30
2022-09-13T05:25:26.225Z,8.55
2022-09-13T05:26:58.469Z,7.75
2022-09-13T05:28:32.585Z,7.78
2022-09-13T05:30:05.233Z,9.07
2022-09-13T05:31:39.976Z,7.70
2022-09-13T05:33:12.187Z,7.68
2022-09-13T05:34:44.739Z,9.52
2022-09-13T05:36:16.782Z,8.40
2022-09-13T05:37:49.940Z,7.40
2022-09-13T05:39:48.491Z,7.72
2022-09-13T05:41:17.361Z,9.65
2022-09-13T05:42:49.451Z,6.97
2022-09-13T05:44:21.454Z,10.45
2022-09-13T05:46:04.817Z,7.82
2022-09-13T05:47:36.908Z,10.50
2022-09-13T05:49:08.995Z,8.00
2022-09-13T05:52:33.203Z,7.35
2022-09-13T05:54:05.474Z,8.55
2022-09-13T05:55:37.575Z,9.00
2022-09-13T05:57:09.557Z,6.78
2022-09-13T05:58:43.387Z,8.27
2022-09-13T06:00:16.263Z,8.02
2022-09-13T06:01:51.889Z,10.63
2022-09-13T06:03:25.040Z,8.00
2022-09-13T06:04:57.390Z,7.03
2022-09-13T06:06:29.767Z,6.35
2022-09-13T06:08:02.152Z,6.20
2022-09-13T06:09:34.165Z,6.80
2022-09-13T06:11:08.374Z,7.68
2022-09-13T06:12:40.728Z,7.68
2022-09-13T06:14:13.186Z,6.97
2022-09-13T06:15:45.328Z,6.23
2022-09-13T06:17:17.671Z,5.80
2022-09-13T06:18:50.346Z,7.32
2022-09-13T06:20:23.285Z,6.32
2022-09-13T06:21:55.630Z,7.53
2022-09-13T06:23:29.116Z,8.38
2022-09-13T06:25:02.044Z,6.93
2022-09-13T06:26:34.521Z,7.25
2022-09-13T06:28:06.998Z,7.07
2022-09-13T06:29:39.378Z,5.93
2022-09-13T06:31:13.716Z,7.38
2022-09-13T06:32:46.025Z,7.53
2022-09-13T06:34:18.404Z,9.15
2022-09-13T06:35:50.667Z,6.68
2022-09-13T06:37:23.192Z,5.95
2022-09-13T06:38:55.958Z,6.70
2022-09-13T06:40:28.467Z,6.93
2022-09-13T06:42:01.489Z,6.18
2022-09-13T06:43:34.415Z,6.28
2022-09-13T06:45:07.403Z,6.72
2022-09-13T06:46:39.755Z,6.53
2022-09-13T06:48:12.222Z,7.05
2022-09-13T06:49:44.726Z,5.87
2022-09-13T06:51:19.212Z,5.05
2022-09-13T06:52:51.544Z,6.03
2022-09-13T06:54:23.745Z,6.38
2022-09-13T06:56:03.332Z,7.53
2022-09-13T06:57:35.735Z,5.80
2022-09-13T06:59:10.136Z,7.23
2022-09-13T07:00:42.616Z,6.57
2022-09-13T07:02:15.577Z,6.47
2022-09-13T07:03:53.070Z,6.80
2022-09-13T07:05:25.394Z,5.82
2022-09-13T07:06:58.721Z,5.05
2022-09-13T07:08:32.266Z,6.20
2022-09-13T07:10:07.792Z,7.47
2022-09-13T07:11:41.616Z,11.30
2022-09-13T07:13:13.913Z,7.10
2022-09-13T07:14:45.849Z,6.10
2022-09-13T07:16:19.226Z,6.60
2022-09-13T07:18:18.322Z,6.78
2022-09-13T07:19:50.543Z,6.15
2022-09-13T07:21:23.653Z,4.43
2022-09-13T07:22:55.890Z,6.07
2022-09-13T07:24:28.268Z,4.90
2022-09-13T07:26:05.929Z,6.53
2022-09-13T07:27:38.294Z,6.60
2022-09-13T07:29:15.213Z,6.43
2022-09-13T07:30:47.471Z,4.97
2022-09-13T07:32:20.143Z,5.85
2022-09-13T07:34:16.813Z,6.13
2022-09-13T07:35:55.732Z,5.95
2022-09-13T07:37:27.797Z,5.28
2022-09-13T07:39:00.475Z,5.95
2022-09-13T07:40:33.553Z,6.13
2022-09-13T07:42:05.734Z,5.88
2022-09-13T07:43:38.243Z,5.35
2022-09-13T07:45:13.001Z,5.65
2022-09-13T07:46:45.530Z,5.70
2022-09-13T07:48:17.612Z,6.05
2022-09-13T07:49:50.745Z,4.85
2022-09-13T07:51:25.175Z,5.18
2022-09-13T07:52:57.302Z,5.90
2022-09-13T07:54:30.485Z,6.10
2022-09-13T07:56:14.345Z,6.50
2022-09-13T07:57:46.563Z,6.13
2022-09-13T07:59:20.065Z,7.20
2022-09-13T08:00:52.256Z,5.88
2022-09-13T08:02:24.686Z,5.45
2022-09-13T08:03:59.155Z,6.53
2022-09-13T08:05:40.021Z,4.95
2022-09-13T08:07:12.242Z,7.63
2022-09-13T08:08:44.546Z,7.20
2022-09-13T08:10:16.997Z,5.18
2022-09-13T08:11:53.332Z,6.30
2022-09-13T08:13:26.291Z,5.85
2022-09-13T08:14:58.417Z,5.80
2022-09-13T08:16:31.300Z,4.70
2022-09-13T08:18:03.382Z,5.28
2022-09-13T08:19:35.619Z,5.32
2022-09-13T08:21:07.935Z,7.25
2022-09-13T08:22:40.149Z,5.47
2022-09-13T08:24:21.567Z,10.02
2022-09-13T08:25:54.036Z,6.00
2022-09-13T08:27:26.265Z,5.88
2022-09-13T08:29:00.154Z,4.97
2022-09-13T08:30:36.230Z,6.65
2022-09-13T08:32:08.473Z,4.95
2022-09-13T08:33:45.576Z,6.03
2022-09-13T08:35:18.662Z,4.90
2022-09-13T08:36:50.913Z,4.15
2022-09-13T08:38:26.005Z,4.57
2022-09-13T08:40:00.923Z,6.03
2022-09-13T08:41:48.724Z,4.45
2022-09-13T08:43:51.949Z,8.20
2022-09-13T08:45:24.125Z,5.50
2022-09-13T08:47:02.326Z,4.15
2022-09-13T08:48:37.322Z,5.28
2022-09-13T08:50:24.914Z,6.10
2022-09-13T08:52:00.153Z,5.43
2022-09-13T08:53:44.272Z,4.38
2022-09-13T08:55:29.579Z,5.03
2022-09-13T08:57:09.837Z,5.20
2022-09-13T08:59:06.842Z,5.10
2022-09-13T09:00:44.891Z,5.75
2022-09-13T09:02:47.753Z,7.07
2022-09-13T09:04:32.837Z,4.78
2022-09-13T09:06:12.791Z,9.00
2022-09-13T09:07:48.395Z,5.65
2022-09-13T09:10:53.856Z,4.82
2022-09-13T09:12:46.295Z,4.47
2022-09-13T09:14:27.533Z,5.18
2022-09-13T09:16:03.457Z,4.05
2022-09-13T09:17:51.127Z,3.95
2022-09-13T09:19:34.843Z,4.22
2022-09-13T09:22:40.259Z,6.17
2022-09-13T09:24:26.782Z,4.63
2022-09-13T09:26:23.219Z,5.47
2022-09-13T09:27:55.826Z,4.18
2022-09-13T09:29:32.966Z,5.88
2022-09-13T09:31:13.970Z,5.53
2022-09-13T09:33:05.040Z,5.40
2022-09-13T09:34:55.645Z,4.88
2022-09-13T09:36:52.369Z,7.35
2022-09-13T09:38:41.835Z,4.03
2022-09-13T09:40:17.642Z,5.43
2022-09-13T09:41:50.066Z,5.57
2022-09-13T09:43:28.881Z,6.57
2022-09-13T09:45:01.048Z,5.63
2022-09-13T09:46:36.051Z,4.88
2022-09-13T09:48:14.784Z,5.75
2022-09-13T09:50:07.499Z,5.57
2022-09-13T09:51:40.266Z,5.03
2022-09-13T09:53:27.347Z,6.90
2022-09-13T09:55:07.828Z,4.88
2022-09-13T09:56:53.584Z,7.13
2022-09-13T09:58:46.556Z,4.03
2022-09-13T10:00:19.802Z,7.97
2022-09-13T10:03:32.603Z,3.63
2022-09-13T10:05:05.379Z,5.97
2022-09-13T10:06:41.409Z,4.35
2022-09-13T10:08:29.226Z,4.80
2022-09-13T10:10:06.942Z,5.18
2022-09-13T10:11:56.060Z,4.25
2022-09-13T10:13:31.776Z,5.32
2022-09-13T10:15:06.293Z,4.32
2022-09-13T10:16:38.694Z,4.82
2022-09-13T10:18:40.095Z,5.82
2022-09-13T10:20:14.346Z,4.28
2022-09-13T10:22:00.452Z,3.20
2022-09-13T10:23:40.146Z,4.47
2022-09-13T10:25:32.758Z,3.90
2022-09-13T10:27:06.065Z,4.70
2022-09-13T10:30:40.094Z,4.10
2022-09-13T10:32:13.772Z,5.07
2022-09-13T10:33:51.946Z,4.85
2022-09-13T10:35:24.802Z,4.35
2022-09-13T10:36:59.095Z,5.03
2022-09-13T10:38:46.038Z,4.15
2022-09-13T10:40:30.580Z,3.95
2022-09-13T10:42:03.670Z,4.25
2022-09-13T10:43:36.440Z,5.13
2022-09-13T10:45:12.077Z,6.63
2022-09-13T10:46:48.895Z,4.47
2022-09-13T10:48:21.687Z,2.97
2022-09-13T10:49:56.584Z,5.13
2022-09-13T10:51:29.099Z,5.45
2022-09-13T10:53:02.501Z,4.22
2022-09-13T10:54:34.787Z,5.22
2022-09-13T10:56:23.344Z,4.93
2022-09-13T10:58:02.897Z,6.05
2022-09-13T10:59:35.950Z,4.15
2022-09-13T11:01:26.389Z,4.35
2022-09-13T11:04:00.910Z,4.88
2022-09-13T11:05:56.295Z,4.05
2022-09-13T11:07:48.948Z,4.07
2022-09-13T11:09:37.417Z,5.03
2022-09-13T11:11:25.493Z,5.28
2022-09-13T11:13:08.325Z,8.35
2022-09-13T11:15:02.368Z,3.93
2022-09-13T11:16:56.715Z,8.40
2022-09-13T11:18:44.198Z,4.07
2022-09-13T11:20:22.145Z,6.05
2022-09-13T11:22:17.315Z,4.15
2022-09-13T11:24:07.357Z,5.30
2022-09-13T11:25:52.357Z,3.20
2022-09-13T11:27:33.853Z,4.07
2022-09-13T11:29:50.865Z,5.35
2022-09-13T11:31:46.398Z,3.72
2022-09-13T11:33:28.507Z,5.05
2022-09-13T11:35:37.020Z,5.75
2022-09-13T11:37:46.290Z,3.08
2022-09-13T11:39:31.705Z,5.57
2022-09-13T11:41:29.758Z,4.03
2022-09-13T11:43:20.062Z,3.83
2022-09-13T11:45:36.677Z,6.05
2022-09-13T11:47:17.763Z,5.00
2022-09-13T11:49:11.547Z,3.13
2022-09-13T11:51:05.169Z,5.05
2022-09-13T11:53:16.533Z,5.63
2022-09-13T11:54:59.473Z,5.13
2022-09-13T11:56:35.116Z,7.38
2022-09-13T11:58:13.025Z,6.07
2022-09-13T11:59:58.467Z,4.82
2022-09-13T12:01:36.841Z,4.13
2022-09-13T12:03:15.647Z,5.97
2022-09-13T12:05:23.948Z,3.90
2022-09-13T12:07:02.013Z,6.10
2022-09-13T12:08:56.617Z,4.68
2022-09-13T12:12:11.499Z,4.93
2022-09-13T12:13:52.489Z,5.93
2022-09-13T12:15:33.934Z,3.85
2022-09-13T12:17:13.291Z,3.97
2022-09-13T12:18:49.417Z,3.17
2022-09-13T12:20:36.619Z,3.00
2022-09-13T12:22:10.758Z,2.97
2022-09-13T12:23:43.494Z,3.45
2022-09-13T12:25:25.306Z,2.75
2022-09-13T12:27:01.873Z,3.85
2022-09-13T12:28:43.739Z,4.35
2022-09-13T12:30:29.382Z,2.97
2022-09-13T12:32:05.558Z,3.47
2022-09-13T12:33:43.253Z,3.00
2022-09-13T12:35:30.845Z,2.80
2022-09-13T12:37:09.450Z,2.80
2022-09-13T12:38:54.593Z,3.03
2022-09-13T12:40:33.799Z,3.25
2022-09-13T12:42:20.705Z,3.28
2022-09-13T12:44:13.619Z,2.88
2022-09-13T12:47:40.272Z,3.42
2022-09-13T12:49:43.018Z,3.92
2022-09-13T12:51:25.857Z,3.15
2022-09-13T12:53:29.664Z,4.35
2022-09-13T12:55:46.721Z,3.28
2022-09-13T12:57:22.533Z,6.32
2022-09-13T12:59:01.676Z,2.63
2022-09-13T13:00:45.392Z,3.88
2022-09-13T13:02:25.189Z,6.90
2022-09-13T13:04:02.327Z,2.47
2022-09-13T13:05:37.684Z,2.83
2022-09-13T13:07:20.004Z,3.17
2022-09-13T13:08:54.511Z,3.33
2022-09-13T13:10:32.922Z,5.03
2022-09-13T13:12:05.119Z,5.65
2022-09-13T13:14:09.910Z,2.83
2022-09-13T13:15:49.269Z,3.80
2022-09-13T13:17:52.026Z,3.72
2022-09-13T13:19:33.325Z,2.55
2022-09-13T13:21:23.417Z,2.67
2022-09-13T13:23:24.012Z,4.15
2022-09-13T13:24:56.384Z,3.63
2022-09-13T13:26:50.338Z,4.45
2022-09-13T13:28:46.347Z,4.57
2022-09-13T13:30:40.922Z,4.13
2022-09-13T13:32:13.286Z,4.07
2022-09-13T13:33:50.673Z,3.58
2022-09-13T13:35:40.845Z,3.38
2022-09-13T13:37:15.967Z,3.72
2022-09-13T13:38:53.213Z,4.00
2022-09-13T13:40:27.359Z,4.07
2022-09-13T13:42:10.993Z,2.97
2022-09-13T13:45:25.482Z,7.72
2022-09-13T13:47:09.785Z,2.58
2022-09-13T13:48:42.593Z,2.75
2022-09-13T13:50:22.098Z,3.70
2022-09-13T13:52:09.759Z,3.47
2022-09-13T13:53:45.257Z,4.35
2022-09-13T13:55:43.455Z,4.35
2022-09-13T13:57:26.354Z,3.70
2022-09-13T13:59:22.047Z,4.03
2022-09-13T14:00:55.151Z,3.42
2022-09-13T14:04:16.491Z,5.35
2022-09-13T14:06:07.750Z,4.93
2022-09-13T14:08:00.615Z,3.67
2022-09-13T14:09:47.921Z,3.78
2022-09-13T14:11:34.064Z,6.00
2022-09-13T14:13:18.859Z,3.95
2022-09-13T14:14:54.227Z,3.78
2022-09-13T14:44:51.498Z,4.95
2022-09-13T14:46:29.373Z,4.68
2022-09-13T14:48:15.982Z,3.97
2022-09-13T14:49:53.240Z,5.50
2022-09-13T14:51:29.380Z,4.50
2022-09-13T14:53:13.548Z,5.97
2022-09-13T14:54:51.718Z,4.63
2022-09-13T14:56:31.983Z,5.65
2022-09-13T14:58:07.331Z,3.88
2022-09-13T14:59:45.823Z,5.85
2022-09-13T15:01:21.373Z,7.35
2022-09-13T15:02:56.761Z,4.78
2022-09-13T15:04:29.211Z,5.03
2022-09-13T15:06:03.815Z,5.13
2022-09-13T15:07:40.476Z,4.03
2022-09-13T15:09:12.599Z,4.07
2022-09-13T15:10:45.394Z,4.40
2022-09-13T15:12:28.808Z,4.90
2022-09-13T15:14:17.619Z,4.43
2022-09-13T15:15:50.222Z,3.38
2022-09-13T15:17:22.578Z,5.30
2022-09-13T15:19:17.258Z,4.43
2022-09-13T15:20:54.541Z,9.07
2022-09-13T15:22:30.579Z,3.85
2022-09-13T15:24:02.867Z,4.45
2022-09-13T15:25:35.067Z,6.20
2022-09-13T15:27:16.968Z,5.65
2022-09-13T15:28:49.164Z,4.47
2022-09-13T15:30:31.188Z,5.68
2022-09-13T15:32:03.869Z,5.95
2022-09-13T15:33:36.847Z,5.65
2022-09-13T15:35:34.472Z,5.10
2022-09-13T15:37:06.607Z,5.32
2022-09-13T15:38:39.116Z,4.60
2022-09-13T15:40:20.866Z,4.95
2022-09-13T15:41:58.326Z,5.60
2022-09-13T15:43:33.893Z,4.95
2022-09-13T15:45:07.435Z,5.05
2022-09-13T15:46:57.527Z,3.95
2022-09-13T15:50:01.433Z,5.15
2022-09-13T15:51:38.699Z,3.85
2022-09-13T15:53:13.329Z,5.25
2022-09-13T15:54:49.492Z,4.15
2022-09-13T15:56:28.975Z,6.65
2022-09-13T15:58:01.264Z,4.57
2022-09-13T15:59:33.607Z,5.30
2022-09-13T16:01:06.293Z,5.90
2022-09-13T16:02:38.515Z,4.75
2022-09-13T16:04:11.480Z,4.35
2022-09-13T16:05:43.673Z,5.32
2022-09-13T16:07:16.587Z,5.03
2022-09-13T16:08:48.709Z,8.15
2022-09-13T16:10:22.808Z,8.90
2022-09-13T16:11:55.457Z,8.75
2022-09-13T16:13:27.849Z,11.82
2022-09-13T16:15:00.277Z,13.38
2022-09-13T16:16:32.683Z,15.63
2022-09-13T16:19:44.355Z,15.57
2022-09-13T16:21:16.669Z,17.45
2022-09-13T16:22:49.495Z,10.33
2022-09-13T16:24:21.805Z,10.00
2022-09-13T16:25:59.620Z,9.77
2022-09-13T16:27:34.164Z,7.80
2022-09-13T16:29:06.883Z,5.32
2022-09-13T16:30:39.277Z,5.47
2022-09-13T16:32:11.651Z,7.67
2022-09-13T16:33:44.252Z,5.07
2022-09-13T16:35:17.573Z,6.80
2022-09-13T16:38:22.199Z,5.50
2022-09-13T16:39:59.716Z,6.38
2022-09-13T16:41:32.077Z,6.00
2022-09-13T16:43:04.302Z,7.20
2022-09-13T16:44:36.623Z,4.78
2022-09-13T16:46:10.420Z,5.23
2022-09-13T16:47:42.931Z,4.65
2022-09-13T16:49:15.271Z,4.97
2022-09-13T16:50:48.331Z,6.63
2022-09-13T16:53:55.837Z,7.30
2022-09-13T16:55:28.405Z,7.63
2022-09-13T16:57:00.922Z,7.43
2022-09-13T16:58:33.396Z,6.35
2022-09-13T17:00:09.870Z,7.50
2022-09-13T17:01:42.328Z,6.68
2022-09-13T17:03:15.122Z,7.03
2022-09-13T17:04:47.769Z,8.02
2022-09-13T17:06:21.014Z,6.00
2022-09-13T17:07:53.456Z,6.00
2022-09-13T17:09:28.022Z,8.10
2022-09-13T17:11:00.895Z,7.40
2022-09-13T17:12:33.628Z,5.63
2022-09-13T17:14:07.627Z,9.48
2022-09-13T17:15:40.600Z,7.85
2022-09-13T17:17:12.871Z,7.10
2022-09-13T17:18:45.189Z,6.20
2022-09-13T17:20:18.159Z,6.43
2022-09-13T17:21:51.481Z,5.55
2022-09-13T17:24:55.800Z,7.15
2022-09-13T17:26:27.937Z,5.38
2022-09-13T17:28:00.006Z,6.40
2022-09-13T17:29:32.017Z,6.75
2022-09-13T17:31:04.105Z,7.32
2022-09-13T17:32:36.174Z,4.88
2022-09-13T17:34:08.581Z,6.18
2022-09-13T17:35:40.775Z,6.17
2022-09-13T17:37:13.297Z,5.03
2022-09-13T17:38:45.581Z,5.40
2022-09-13T17:40:18.281Z,6.30
2022-09-13T17:41:51.846Z,10.23
2022-09-13T17:43:24.220Z,8.25
2022-09-13T17:44:56.479Z,5.78
2022-09-13T17:46:30.519Z,5.82
2022-09-13T17:48:03.073Z,5.65
2022-09-13T17:49:35.389Z,6.25
2022-09-13T17:51:17.277Z,6.50
2022-09-13T17:52:49.597Z,6.22
2022-09-13T17:54:21.985Z,6.22
2022-09-13T17:55:54.296Z,7.30
2022-09-13T17:57:28.266Z,7.93
2022-09-13T17:59:11.922Z,6.85
2022-09-13T18:00:44.547Z,7.97
2022-09-13T18:02:16.652Z,7.85
2022-09-13T18:03:48.787Z,6.20
2022-09-13T18:05:21.388Z,8.13
2022-09-13T18:06:55.613Z,7.35
2022-09-13T18:08:29.387Z,7.90
2022-09-13T18:10:01.871Z,8.02
2022-09-13T18:11:34.024Z,7.38
2022-09-13T18:13:06.345Z,8.68
2022-09-13T18:14:38.987Z,5.97
2022-09-13T18:16:20.712Z,7.05
2022-09-13T18:17:54.577Z,7.40
2022-09-13T18:19:44.943Z,7.60
2022-09-13T18:21:20.823Z,6.13
2022-09-13T18:22:55.091Z,8.32
2022-09-13T18:24:27.189Z,6.55
2022-09-13T18:26:03.460Z,7.15
2022-09-13T18:27:36.926Z,7.50
2022-09-13T18:29:14.171Z,7.72
2022-09-13T18:30:53.064Z,7.93
2022-09-13T18:32:25.222Z,7.53
2022-09-13T18:34:02.460Z,8.27
2022-09-13T18:35:34.498Z,8.60
2022-09-13T18:37:06.500Z,8.43
2022-09-13T18:38:41.294Z,7.60
2022-09-13T18:40:14.431Z,7.13
2022-09-13T18:41:48.361Z,7.00
2022-09-13T18:43:20.466Z,7.97
2022-09-13T18:44:53.028Z,7.45
2022-09-13T18:46:32.024Z,7.70
2022-09-13T18:48:04.112Z,8.25
2022-09-13T18:49:36.123Z,10.68
2022-09-13T18:51:16.979Z,7.72
2022-09-13T18:52:49.094Z,7.47
2022-09-13T18:54:21.253Z,9.18
2022-09-13T18:55:53.392Z,7.65
2022-09-13T18:57:25.442Z,8.23
2022-09-13T18:59:00.304Z,7.75
2022-09-13T19:00:33.298Z,9.15
2022-09-13T19:02:05.452Z,7.30
2022-09-13T19:03:38.351Z,9.13
2022-09-13T19:05:10.687Z,7.93
2022-09-13T19:06:46.247Z,7.78
2022-09-13T19:08:18.865Z,8.88
2022-09-13T19:09:51.169Z,7.20
2022-09-13T19:11:45.450Z,20.25
2022-09-13T19:13:16.954Z,8.63
2022-09-13T19:14:49.182Z,8.32
2022-09-13T19:16:21.792Z,7.85
2022-09-13T19:17:53.916Z,7.80
2022-09-13T19:19:25.982Z,7.65
2022-09-13T19:21:18.650Z,7.80
2022-09-13T19:22:52.543Z,7.65
2022-09-13T19:24:24.878Z,7.80
2022-09-13T19:26:06.331Z,6.15
2022-09-13T19:27:38.341Z,6.38
2022-09-13T19:29:18.155Z,6.78
2022-09-13T19:30:51.264Z,6.95
2022-09-13T19:32:23.274Z,7.13
2022-09-13T19:33:56.655Z,7.38
2022-09-13T19:37:00.739Z,6.55
2022-09-13T19:38:33.772Z,6.90
2022-09-13T19:40:06.403Z,7.05
2022-09-13T19:41:41.630Z,7.35
2022-09-13T19:43:13.655Z,7.18
2022-09-13T19:44:45.715Z,6.80
2022-09-13T19:46:23.569Z,7.93
2022-09-13T19:49:50.126Z,6.80
2022-09-13T19:51:27.586Z,6.45
2022-09-13T19:52:59.617Z,6.63
2022-09-13T19:54:31.645Z,6.90
2022-09-13T19:56:05.123Z,6.70
2022-09-13T19:57:38.527Z,8.90
2022-09-13T19:59:14.571Z,6.63
2022-09-13T20:00:49.461Z,7.82
2022-09-13T20:02:21.688Z,7.05
2022-09-13T20:03:58.959Z,7.28
2022-09-13T20:05:33.935Z,6.63
2022-09-13T20:07:06.791Z,6.43
2022-09-13T20:08:40.935Z,6.60
2022-09-13T20:10:12.942Z,6.20
2022-09-13T20:11:46.199Z,6.40
2022-09-13T20:13:18.343Z,6.07
2022-09-13T20:14:50.672Z,9.32
2022-09-13T20:16:25.181Z,7.40
2022-09-13T20:17:57.501Z,6.13
2022-09-13T20:19:41.036Z,6.82
2022-09-13T20:21:16.399Z,6.78
2022-09-13T20:22:48.950Z,8.25
2022-09-13T20:24:21.119Z,6.65
2022-09-13T20:25:53.169Z,6.72
2022-09-13T20:27:30.631Z,7.03
2022-09-13T20:29:07.893Z,5.93
2022-09-13T20:30:42.004Z,7.70
2022-09-13T20:32:14.362Z,7.65
2022-09-13T20:33:46.850Z,7.32
2022-09-13T20:35:19.224Z,7.10
2022-09-13T20:36:51.803Z,6.78
2022-09-13T20:38:24.297Z,6.80
2022-09-13T20:39:56.662Z,7.53
2022-09-13T20:41:28.755Z,6.13
2022-09-13T20:43:00.768Z,7.53
2022-09-13T20:44:32.984Z,6.80
2022-09-13T20:46:08.978Z,7.32
2022-09-13T20:47:41.056Z,7.38
2022-09-13T20:49:13.214Z,7.45
2022-09-13T20:50:45.450Z,6.93
2022-09-13T20:52:17.719Z,9.82
2022-09-13T20:54:00.720Z,7.13
2022-09-13T20:55:37.612Z,6.55
2022-09-13T20:57:09.573Z,7.90
2022-09-13T20:58:43.383Z,7.05
2022-09-13T21:00:15.996Z,7.55
2022-09-13T21:01:48.023Z,6.82
2022-09-13T21:03:20.110Z,8.00
2022-09-13T21:04:52.183Z,7.47
2022-09-13T21:06:26.631Z,8.32
2022-09-13T21:08:17.340Z,8.20
2022-09-13T21:09:49.364Z,7.20
2022-09-13T21:11:24.258Z,7.55
2022-09-13T21:12:56.601Z,7.63
2022-09-13T21:14:32.345Z,9.30
2022-09-13T21:16:08.859Z,6.78
2022-09-13T21:17:40.866Z,8.30
2022-09-13T21:19:13.256Z,6.85
2022-09-13T21:20:55.250Z,6.70
2022-09-13T21:22:27.196Z,6.80
2022-09-13T21:24:00.799Z,7.22
2022-09-13T21:25:36.392Z,7.70
2022-09-13T21:27:08.558Z,6.93
2022-09-13T21:28:43.431Z,7.15
2022-09-13T21:30:16.190Z,7.75
2022-09-13T21:31:48.316Z,7.68
2022-09-13T21:33:20.397Z,7.10
2022-09-13T21:34:52.470Z,6.18
2022-09-13T21:36:25.592Z,7.20
2022-09-13T21:37:57.671Z,9.50
2022-09-13T21:39:30.334Z,7.20
2022-09-13T21:41:05.440Z,8.15
2022-09-13T21:42:37.551Z,7.35
2022-09-13T21:44:10.665Z,7.90
2022-09-13T21:45:42.700Z,7.65
2022-09-13T21:47:15.159Z,6.57
2022-09-13T21:48:49.505Z,7.40
2022-09-13T21:50:21.712Z,7.20
2022-09-13T21:51:54.664Z,8.73
2022-09-13T21:53:26.702Z,8.07
2022-09-13T21:54:58.667Z,7.57
2022-09-13T21:56:32.082Z,7.30
2022-09-13T21:59:36.392Z,7.68
2022-09-13T22:01:12.402Z,8.05
2022-09-13T22:02:44.494Z,8.70
2022-09-13T22:04:24.508Z,7.10
2022-09-13T22:05:57.314Z,8.45
2022-09-13T22:07:29.316Z,6.55
2022-09-13T22:09:04.273Z,6.07
2022-09-13T22:10:36.686Z,7.32
2022-09-13T22:12:08.677Z,7.47
2022-09-13T22:13:48.060Z,7.53
2022-09-13T22:15:20.032Z,7.55
2022-09-13T22:16:53.319Z,7.40
2022-09-13T22:19:57.290Z,7.22
2022-09-13T22:21:31.729Z,9.02
2022-09-13T22:23:03.905Z,8.15
2022-09-13T22:24:36.786Z,7.25
2022-09-13T22:26:11.885Z,8.00
2022-09-13T22:27:43.814Z,9.40
2022-09-13T22:29:16.506Z,7.18
2022-09-13T22:30:48.981Z,7.63
2022-09-13T22:32:23.317Z,7.43
2022-09-13T22:33:57.978Z,7.60
2022-09-13T22:37:01.827Z,6.35
2022-09-13T22:38:35.282Z,7.95
2022-09-13T22:41:40.005Z,6.82
2022-09-13T22:43:12.085Z,10.35
2022-09-13T22:44:44.146Z,7.80